createdAt,value
2019-03-15T00:01:04.817Z,8.72
2019-03-15T00:06:11.972Z,10.06
2019-03-15T00:11:19.073Z,10.15
2019-03-15T00:16:26.162Z,10.26
2019-03-15T00:21:33.222Z,9.62
2019-03-15T00:26:40.340Z,10.42
2019-03-15T00:31:47.442Z,10.02
2019-03-15T00:36:54.574Z,10.79
2019-03-15T00:42:02.262Z,9.49
2019-03-15T00:47:09.376Z,10.77
2019-03-15T00:52:16.482Z,9.06
2019-03-15T00:57:23.582Z,9.71
2019-03-15T01:02:30.966Z,10.35
2019-03-15T01:07:38.125Z,9.00
2019-03-15T01:12:45.212Z,10.30
2019-03-15T01:17:52.671Z,9.76
2019-03-15T01:22:59.556Z,9.03
2019-03-15T01:28:06.672Z,10.08
2019-03-15T01:33:13.842Z,9.17
2019-03-15T01:38:20.963Z,8.33
2019-03-15T01:43:28.096Z,10.06
2019-03-15T01:48:35.187Z,9.72
2019-03-15T01:53:42.268Z,9.04
2019-03-15T01:58:49.381Z,8.59
2019-03-15T02:03:56.461Z,9.31
2019-03-15T02:09:03.564Z,7.85
2019-03-15T02:14:10.739Z,10.55
2019-03-15T02:19:18.654Z,8.07
2019-03-15T02:24:26.048Z,8.30
2019-03-15T02:29:33.164Z,7.09
2019-03-15T02:34:40.338Z,7.08
2019-03-15T02:39:47.614Z,9.16
2019-03-15T02:44:55.121Z,8.35
2019-03-15T02:50:02.237Z,7.98
2019-03-15T02:55:09.392Z,7.16
2019-03-15T03:00:16.707Z,7.68
2019-03-15T03:05:23.845Z,7.75
2019-03-15T03:10:30.983Z,7.01
2019-03-15T03:15:38.117Z,7.92
2019-03-15T03:20:45.272Z,7.46
2019-03-15T03:25:52.361Z,6.92
2019-03-15T03:30:59.467Z,7.89
2019-03-15T03:36:06.562Z,6.06
2019-03-15T03:41:13.709Z,6.94
2019-03-15T03:46:21.394Z,7.16
2019-03-15T03:51:28.510Z,7.51
2019-03-15T03:56:35.602Z,8.07
2019-03-15T04:01:42.719Z,6.91
2019-03-15T04:06:50.152Z,7.55
2019-03-15T04:11:57.237Z,6.68
2019-03-15T04:17:04.392Z,7.55
2019-03-15T04:22:12.465Z,6.16
2019-03-15T04:27:19.710Z,6.89
2019-03-15T04:32:26.798Z,7.38
2019-03-15T04:37:33.928Z,6.68
2019-03-15T04:42:41.032Z,6.47
2019-03-15T04:47:48.345Z,8.11
2019-03-15T04:52:56.113Z,7.50
2019-03-15T04:58:03.807Z,8.11
2019-03-15T05:03:10.967Z,6.61
2019-03-15T05:08:18.106Z,7.25
2019-03-15T05:13:25.307Z,7.87
2019-03-15T05:18:32.561Z,7.69
2019-03-15T05:23:39.715Z,7.84
2019-03-15T05:28:46.873Z,9.33
2019-03-15T05:33:54.036Z,8.40
2019-03-15T05:39:01.180Z,8.52
2019-03-15T05:44:08.839Z,8.70
2019-03-15T05:49:15.971Z,7.09
2019-03-15T05:54:23.488Z,9.07
2019-03-15T05:59:30.620Z,9.33
2019-03-15T06:04:38.090Z,9.01
2019-03-15T06:09:45.236Z,8.59
2019-03-15T06:14:52.353Z,9.48
2019-03-15T06:19:59.461Z,9.51
2019-03-15T06:25:06.940Z,9.37
2019-03-15T06:30:14.028Z,10.27
2019-03-15T06:35:21.142Z,9.19
2019-03-15T06:40:28.282Z,9.79
2019-03-15T06:45:35.411Z,10.35
2019-03-15T06:50:42.517Z,10.58
2019-03-15T06:55:49.695Z,9.98
2019-03-15T07:00:57.368Z,8.86
2019-03-15T07:06:03.461Z,9.49
2019-03-15T07:11:11.511Z,13.16
2019-03-15T07:16:18.606Z,9.01
2019-03-15T07:21:25.709Z,8.25
2019-03-15T07:26:32.816Z,8.14
2019-03-15T07:31:39.937Z,7.71
2019-03-15T07:36:47.132Z,6.30
2019-03-15T07:41:54.833Z,7.22
2019-03-15T07:47:01.937Z,7.76
2019-03-15T07:52:09.045Z,6.23
2019-03-15T07:57:16.263Z,5.84
2019-03-15T08:02:23.384Z,5.09
2019-03-15T08:07:36.375Z,4.51
2019-03-15T08:12:38.700Z,4.27
2019-03-15T08:17:43.810Z,3.97
2019-03-15T08:22:50.912Z,3.93
2019-03-15T08:27:58.073Z,2.91
2019-03-15T08:33:09.452Z,3.15
2019-03-15T08:38:11.891Z,2.89
2019-03-15T08:43:18.962Z,3.44
2019-03-15T08:48:26.174Z,3.21
2019-03-15T08:53:33.284Z,3.02
2019-03-15T08:58:40.420Z,3.35
2019-03-15T09:03:47.854Z,3.07
2019-03-15T09:08:54.998Z,2.43
2019-03-15T09:14:02.112Z,2.85
2019-03-15T09:19:09.209Z,2.25
2019-03-15T09:24:16.289Z,2.09
2019-03-15T09:29:23.429Z,2.28
2019-03-15T09:34:30.531Z,2.09
2019-03-15T09:39:37.652Z,2.16
2019-03-15T09:44:44.785Z,2.37
2019-03-15T09:49:51.888Z,2.80
2019-03-15T09:54:59.077Z,3.03
2019-03-15T10:00:06.212Z,2.67
2019-03-15T10:05:13.357Z,2.72
2019-03-15T10:10:20.442Z,2.46
2019-03-15T10:15:27.620Z,2.93
2019-03-15T10:20:34.704Z,2.86
2019-03-15T10:25:48.447Z,3.67
2019-03-15T10:30:48.505Z,3.12
2019-03-15T10:35:55.608Z,2.44
2019-03-15T10:41:02.738Z,2.81
2019-03-15T10:46:09.811Z,2.51
2019-03-15T10:51:16.934Z,2.75
2019-03-15T10:56:24.009Z,2.39
2019-03-15T11:01:31.130Z,2.20
2019-03-15T11:06:38.270Z,2.61
2019-03-15T11:11:45.382Z,2.48
2019-03-15T11:16:52.425Z,2.16
2019-03-15T11:21:59.505Z,2.38
2019-03-15T11:27:06.597Z,3.44
2019-03-15T11:32:13.731Z,5.12
2019-03-15T11:37:20.852Z,5.53
2019-03-15T11:42:28.003Z,6.37
2019-03-15T11:47:50.255Z,6.64
2019-03-15T11:52:42.116Z,6.50
2019-03-15T11:57:49.306Z,5.80
2019-03-15T12:02:56.361Z,6.57
2019-03-15T12:08:03.494Z,7.29
2019-03-15T12:13:10.655Z,6.32
2019-03-15T12:18:17.791Z,6.67
2019-03-15T12:23:24.901Z,6.25
2019-03-15T12:28:32.125Z,6.47
2019-03-15T12:33:39.247Z,6.28
2019-03-15T12:38:46.354Z,6.39
2019-03-15T12:43:53.455Z,5.56
2019-03-15T12:49:00.569Z,5.06
2019-03-15T12:54:07.958Z,6.04
2019-03-15T12:59:15.096Z,5.44
2019-03-15T13:04:22.270Z,5.06
2019-03-15T13:09:29.444Z,5.13
2019-03-15T13:14:36.597Z,5.43
2019-03-15T13:19:54.477Z,5.63
2019-03-15T13:24:50.317Z,5.00
2019-03-15T13:29:57.463Z,4.77
2019-03-15T13:35:04.918Z,4.85
2019-03-15T13:40:12.112Z,4.91
2019-03-15T13:45:19.375Z,5.37
2019-03-15T13:50:26.443Z,5.19
2019-03-15T13:55:33.569Z,6.27
2019-03-15T14:00:40.765Z,4.67
2019-03-15T14:05:48.253Z,4.97
2019-03-15T14:10:55.374Z,5.18
2019-03-15T14:16:03.198Z,4.73
2019-03-15T14:21:10.366Z,4.41
2019-03-15T14:26:24.727Z,4.64
2019-03-15T14:31:21.940Z,4.00
2019-03-15T14:36:29.133Z,4.61
2019-03-15T14:41:36.463Z,4.37
2019-03-15T14:46:44.906Z,5.37
2019-03-15T14:51:52.056Z,5.44
2019-03-15T14:56:59.335Z,3.66
2019-03-15T15:02:06.601Z,3.65
2019-03-15T15:07:13.725Z,3.84
2019-03-15T15:12:21.229Z,3.22
2019-03-15T15:17:28.492Z,4.58
2019-03-15T15:22:35.581Z,4.29
2019-03-15T15:27:42.822Z,3.91
2019-03-15T15:32:50.265Z,4.18
2019-03-15T15:37:57.331Z,4.15
2019-03-15T15:43:04.439Z,3.82
2019-03-15T15:48:12.002Z,4.31
2019-03-15T15:53:19.182Z,3.89
2019-03-15T15:58:26.571Z,4.12
2019-03-15T16:03:33.934Z,3.86
2019-03-15T16:08:41.318Z,4.00
2019-03-15T16:13:48.822Z,3.86
2019-03-15T16:18:56.027Z,4.23
2019-03-15T16:24:03.112Z,4.16
2019-03-15T16:29:10.277Z,5.00
2019-03-15T16:34:18.109Z,4.21
2019-03-15T16:39:26.656Z,3.29
2019-03-15T16:44:34.366Z,4.80
2019-03-15T16:49:42.248Z,3.02
2019-03-15T16:54:49.371Z,3.24
2019-03-15T16:59:56.527Z,2.95
2019-03-15T17:05:03.718Z,2.38
2019-03-15T17:10:12.299Z,2.49
2019-03-15T17:15:19.995Z,2.22
2019-03-15T17:20:27.173Z,3.19
2019-03-15T17:25:36.106Z,2.84
2019-03-15T17:30:44.214Z,2.05
2019-03-15T17:35:51.352Z,2.21
2019-03-15T17:40:59.636Z,2.08
2019-03-15T17:46:06.787Z,2.35
2019-03-15T17:51:14.661Z,2.36
2019-03-15T17:56:22.297Z,2.43
2019-03-15T18:01:30.513Z,2.25
2019-03-15T18:06:38.832Z,2.31
2019-03-15T18:11:47.201Z,2.60
2019-03-15T18:16:55.122Z,2.21
2019-03-15T18:22:12.048Z,2.15
2019-03-15T18:27:10.511Z,2.05
2019-03-15T18:32:18.178Z,1.52
2019-03-15T18:37:26.754Z,1.18
2019-03-15T18:42:34.499Z,1.05
2019-03-15T18:47:41.932Z,1.33
2019-03-15T18:52:50.416Z,1.20
2019-03-15T18:57:57.958Z,2.12
2019-03-15T19:03:05.410Z,1.91
2019-03-15T19:08:13.111Z,2.76
2019-03-15T19:13:20.577Z,3.33
2019-03-15T19:18:27.997Z,2.79
2019-03-15T19:23:35.462Z,2.54
2019-03-15T19:28:43.019Z,3.49
2019-03-15T19:33:50.392Z,4.44
2019-03-15T19:38:58.183Z,4.70
2019-03-15T19:44:10.814Z,5.16
2019-03-15T19:49:08.472Z,3.97
2019-03-15T19:54:16.107Z,4.56
2019-03-15T19:59:23.721Z,4.92
2019-03-15T20:04:32.010Z,5.03
2019-03-15T20:09:39.359Z,4.23
2019-03-15T20:14:46.740Z,4.25
2019-03-15T20:19:54.869Z,4.73
2019-03-15T20:25:02.078Z,5.33
2019-03-15T20:30:20.507Z,4.77
2019-03-15T20:35:15.787Z,4.34
2019-03-15T20:40:23.466Z,6.24
2019-03-15T20:45:31.662Z,5.01
2019-03-15T20:50:46.798Z,4.39
2019-03-15T20:55:45.788Z,5.34
2019-03-15T21:00:52.818Z,6.28
2019-03-15T21:06:00.231Z,6.17
2019-03-15T21:11:08.860Z,5.33
2019-03-15T21:16:18.123Z,5.33
2019-03-15T21:21:22.092Z,5.07
2019-03-15T21:26:30.217Z,5.74
2019-03-15T21:31:37.329Z,5.04
2019-03-15T21:36:47.821Z,5.78
2019-03-15T21:41:45.303Z,5.92
2019-03-15T21:46:54.310Z,5.79
2019-03-15T21:52:02.055Z,6.26
2019-03-15T21:57:09.850Z,6.18
2019-03-15T22:02:18.681Z,6.16
2019-03-15T22:07:27.945Z,8.12
2019-03-15T22:12:37.283Z,6.27
2019-03-15T22:17:45.033Z,6.74
2019-03-15T22:22:52.092Z,6.83
2019-03-15T22:27:59.380Z,7.83
2019-03-15T22:33:07.426Z,6.43
2019-03-15T22:38:25.545Z,7.03
2019-03-15T22:43:22.649Z,5.91
2019-03-15T22:48:29.838Z,6.91
2019-03-15T22:53:37.201Z,7.10
2019-03-15T22:58:44.690Z,6.78
2019-03-15T23:03:52.390Z,7.00
2019-03-15T23:08:59.476Z,7.90
2019-03-15T23:14:06.821Z,6.78
2019-03-15T23:19:13.936Z,6.12
2019-03-15T23:24:21.767Z,6.95
2019-03-15T23:29:28.838Z,7.58
2019-03-15T23:34:35.958Z,7.40
2019-03-15T23:39:43.050Z,6.68
2019-03-15T23:44:50.142Z,7.06
2019-03-15T23:49:57.221Z,6.95
2019-03-15T23:55:04.390Z,6.61
